createdAt,value
2018-07-20T00:00:12.944Z,11.50
2018-07-20T00:02:43.596Z,11.83
2018-07-20T00:05:14.280Z,11.80
2018-07-20T00:07:44.395Z,11.77
2018-07-20T00:10:15.035Z,11.27
2018-07-20T00:12:45.676Z,10.70
2018-07-20T00:15:16.340Z,11.20
2018-07-20T00:17:46.966Z,11.67
2018-07-20T00:20:17.584Z,11.23
2018-07-20T00:22:48.248Z,10.47
2018-07-20T00:25:19.238Z,10.60
2018-07-20T00:27:49.903Z,10.53
2018-07-20T00:30:20.585Z,10.83
2018-07-20T00:32:51.460Z,10.40
2018-07-20T00:35:22.827Z,10.70
2018-07-20T00:37:53.484Z,10.40
2018-07-20T00:40:24.247Z,10.97
2018-07-20T00:42:54.996Z,11.07
2018-07-20T00:45:25.627Z,11.03
2018-07-20T00:47:56.267Z,10.70
2018-07-20T00:50:26.881Z,10.40
2018-07-20T00:52:56.941Z,11.23
2018-07-20T00:55:27.616Z,11.53
2018-07-20T00:57:58.265Z,10.83
2018-07-20T01:00:28.891Z,10.93
2018-07-20T01:02:59.564Z,10.83
2018-07-20T01:05:30.229Z,11.03
2018-07-20T01:08:00.897Z,10.80
2018-07-20T01:10:31.623Z,11.43
2018-07-20T01:13:02.260Z,11.23
2018-07-20T01:15:32.944Z,10.87
2018-07-20T01:18:03.628Z,11.70
2018-07-20T01:20:34.277Z,11.47
2018-07-20T01:23:04.940Z,11.03
2018-07-20T01:25:35.619Z,10.80
2018-07-20T01:28:06.285Z,11.10
2018-07-20T01:30:37.431Z,11.80
2018-07-20T01:33:08.576Z,12.03
2018-07-20T01:35:39.944Z,12.23
2018-07-20T01:38:10.872Z,11.17
2018-07-20T01:40:41.515Z,11.93
2018-07-20T01:43:12.156Z,12.00
2018-07-20T01:45:42.790Z,12.10
2018-07-20T01:48:13.420Z,12.07
2018-07-20T01:50:44.103Z,12.07
2018-07-20T01:53:14.728Z,12.23
2018-07-20T01:55:45.416Z,11.90
2018-07-20T01:58:16.032Z,9.83
2018-07-20T02:00:47.122Z,9.57
2018-07-20T02:03:17.727Z,8.07
2018-07-20T02:05:48.396Z,4.80
2018-07-20T02:08:19.007Z,3.70
2018-07-20T02:10:59.962Z,3.33
2018-07-20T02:13:30.671Z,3.37
2018-07-20T02:16:01.325Z,3.70
2018-07-20T02:18:31.973Z,3.20
2018-07-20T02:21:02.615Z,3.40
2018-07-20T02:23:33.238Z,3.00
2018-07-20T02:26:03.949Z,2.90
2018-07-20T02:28:34.584Z,3.00
2018-07-20T02:31:05.242Z,3.33
2018-07-20T02:33:35.890Z,3.77
2018-07-20T02:36:06.852Z,4.10
2018-07-20T02:38:37.487Z,4.70
2018-07-20T02:41:08.180Z,4.60
2018-07-20T02:43:38.906Z,4.57
2018-07-20T02:46:09.528Z,4.70
2018-07-20T02:48:40.141Z,5.00
2018-07-20T02:51:10.791Z,5.67
2018-07-20T02:53:41.421Z,5.50
2018-07-20T02:56:12.095Z,5.20
2018-07-20T02:58:42.759Z,5.93
2018-07-20T03:01:13.382Z,5.67
2018-07-20T03:03:44.013Z,5.27
2018-07-20T03:06:14.656Z,5.13
2018-07-20T03:08:45.319Z,5.80
2018-07-20T03:11:16.316Z,5.30
2018-07-20T03:13:47.041Z,6.23
2018-07-20T03:16:17.731Z,5.40
2018-07-20T03:18:48.362Z,5.87
2018-07-20T03:21:19.136Z,6.43
2018-07-20T03:23:49.761Z,6.40
2018-07-20T03:26:20.428Z,6.43
2018-07-20T03:28:51.050Z,6.17
2018-07-20T03:31:21.706Z,6.70
2018-07-20T03:33:51.744Z,5.90
2018-07-20T03:36:22.402Z,5.63
2018-07-20T03:38:53.028Z,6.27
2018-07-20T03:41:23.808Z,6.40
2018-07-20T03:43:54.449Z,6.63
2018-07-20T03:46:25.055Z,6.40
2018-07-20T03:48:55.833Z,6.10
2018-07-20T03:51:26.437Z,5.50
2018-07-20T03:53:57.058Z,6.63
2018-07-20T03:56:27.982Z,6.13
2018-07-20T03:58:58.576Z,6.60
2018-07-20T04:01:29.256Z,6.40
2018-07-20T04:03:59.905Z,7.53
2018-07-20T04:06:30.635Z,6.53
2018-07-20T04:09:01.278Z,6.83
2018-07-20T04:11:31.971Z,6.40
2018-07-20T04:14:02.632Z,6.40
2018-07-20T04:16:33.399Z,6.00
2018-07-20T04:19:04.076Z,6.30
2018-07-20T04:21:34.748Z,6.67
2018-07-20T04:24:05.456Z,7.00
2018-07-20T04:26:36.074Z,6.23
2018-07-20T04:29:06.815Z,6.93
2018-07-20T04:31:37.517Z,7.97
2018-07-20T04:34:08.214Z,7.00
2018-07-20T04:36:38.880Z,6.43
2018-07-20T04:39:13.609Z,7.17
2018-07-20T04:41:45.382Z,7.47
2018-07-20T04:44:16.024Z,6.37
2018-07-20T04:46:46.642Z,7.03
2018-07-20T04:49:17.279Z,7.23
2018-07-20T04:51:47.921Z,7.33
2018-07-20T04:54:18.546Z,6.87
2018-07-20T04:56:49.169Z,7.33
2018-07-20T04:59:19.795Z,7.70
2018-07-20T05:01:50.442Z,7.20
2018-07-20T05:04:21.115Z,7.63
2018-07-20T05:06:51.752Z,7.87
2018-07-20T05:09:22.359Z,7.37
2018-07-20T05:11:53.150Z,8.23
2018-07-20T05:14:24.019Z,8.13
2018-07-20T05:16:54.061Z,7.07
2018-07-20T05:19:24.727Z,7.97
2018-07-20T05:21:55.375Z,8.37
2018-07-20T05:24:26.007Z,8.40
2018-07-20T05:26:56.674Z,8.33
2018-07-20T05:29:27.419Z,8.40
2018-07-20T05:31:58.047Z,8.17
2018-07-20T05:34:28.679Z,8.73
2018-07-20T05:36:59.339Z,8.53
2018-07-20T05:39:29.971Z,9.43
2018-07-20T05:42:00.745Z,9.00
2018-07-20T05:44:31.383Z,9.37
2018-07-20T05:47:02.023Z,9.60
2018-07-20T05:49:32.633Z,9.93
2018-07-20T05:52:03.578Z,10.27
2018-07-20T05:54:34.211Z,10.30
2018-07-20T05:57:04.848Z,10.00
2018-07-20T05:59:35.484Z,9.30
2018-07-20T06:02:06.164Z,9.63
2018-07-20T06:04:36.791Z,9.10
2018-07-20T06:07:07.551Z,9.70
2018-07-20T06:09:38.171Z,9.80
2018-07-20T06:12:09.231Z,9.23
2018-07-20T06:14:39.909Z,11.17
2018-07-20T06:17:11.016Z,9.47
2018-07-20T06:19:41.663Z,10.60
2018-07-20T06:22:12.312Z,9.90
2018-07-20T06:24:43.011Z,9.57
2018-07-20T06:27:13.646Z,10.73
2018-07-20T06:29:44.335Z,11.10
2018-07-20T06:32:14.976Z,10.60
2018-07-20T06:34:45.665Z,12.63
2018-07-20T06:37:16.299Z,10.97
2018-07-20T06:39:46.925Z,11.53
2018-07-20T06:42:17.613Z,11.80
2018-07-20T06:44:48.351Z,12.03
2018-07-20T06:47:18.971Z,12.00
2018-07-20T06:49:49.630Z,12.23
2018-07-20T06:52:20.379Z,13.20
2018-07-20T06:54:51.026Z,12.67
2018-07-20T06:57:21.739Z,11.50
2018-07-20T06:59:52.354Z,12.27
2018-07-20T07:02:22.962Z,11.90
2018-07-20T07:04:53.572Z,12.90
2018-07-20T07:07:24.227Z,12.70
2018-07-20T07:09:54.831Z,13.53
2018-07-20T07:12:25.447Z,12.90
2018-07-20T07:14:56.105Z,12.50
2018-07-20T07:17:26.712Z,12.13
2018-07-20T07:19:57.431Z,12.53
2018-07-20T07:22:28.100Z,12.83
2018-07-20T07:24:58.745Z,13.57
2018-07-20T07:27:29.340Z,14.03
2018-07-20T07:29:59.946Z,13.53
2018-07-20T07:32:30.633Z,13.60
2018-07-20T07:35:01.241Z,13.87
2018-07-20T07:37:31.856Z,15.03
2018-07-20T07:40:02.495Z,15.23
2018-07-20T07:42:33.152Z,15.27
2018-07-20T07:45:04.416Z,13.90
2018-07-20T07:47:35.031Z,15.57
2018-07-20T07:50:06.654Z,14.67
2018-07-20T07:52:37.595Z,15.00
2018-07-20T07:55:08.222Z,14.33
2018-07-20T07:57:38.820Z,14.83
2018-07-20T08:00:09.538Z,14.03
2018-07-20T08:02:40.167Z,14.33
2018-07-20T08:05:10.860Z,12.63
2018-07-20T08:07:41.500Z,13.87
2018-07-20T08:10:12.353Z,13.37
2018-07-20T08:12:43.027Z,14.43
2018-07-20T08:15:13.788Z,12.30
2018-07-20T08:17:44.464Z,13.03
2018-07-20T08:20:15.527Z,12.67
2018-07-20T08:22:46.410Z,11.97
2018-07-20T08:25:17.055Z,13.10
2018-07-20T08:27:47.681Z,12.83
2018-07-20T08:30:18.314Z,13.80
2018-07-20T08:32:48.946Z,12.27
2018-07-20T08:35:19.650Z,12.87
2018-07-20T08:37:50.970Z,11.63
2018-07-20T08:40:22.150Z,11.97
2018-07-20T08:42:53.609Z,12.60
2018-07-20T08:45:24.687Z,11.83
2018-07-20T08:48:02.479Z,11.57
2018-07-20T08:50:33.784Z,11.97
2018-07-20T08:53:05.242Z,11.70
2018-07-20T08:55:36.341Z,11.47
2018-07-20T08:58:07.780Z,10.50
2018-07-20T09:00:39.100Z,11.27
2018-07-20T09:03:10.394Z,11.23
2018-07-20T09:05:41.708Z,10.93
2018-07-20T09:08:12.316Z,11.60
2018-07-20T09:10:42.915Z,10.97
2018-07-20T09:13:13.560Z,10.30
2018-07-20T09:15:44.187Z,11.00
2018-07-20T09:18:14.833Z,10.80
2018-07-20T09:20:44.994Z,11.00
2018-07-20T09:23:16.191Z,10.67
2018-07-20T09:25:46.855Z,10.80
2018-07-20T09:28:17.594Z,11.40
2018-07-20T09:30:48.229Z,11.33
2018-07-20T09:33:18.925Z,12.07
2018-07-20T09:35:49.565Z,11.23
2018-07-20T09:38:20.193Z,10.90
2018-07-20T09:40:50.788Z,11.53
2018-07-20T09:43:21.459Z,10.90
2018-07-20T09:45:52.140Z,10.80
2018-07-20T09:48:22.763Z,9.87
2018-07-20T09:50:53.401Z,10.57
2018-07-20T09:53:24.587Z,11.10
2018-07-20T09:55:55.250Z,10.30
2018-07-20T09:58:25.403Z,10.90
2018-07-20T10:00:56.039Z,9.70
2018-07-20T10:03:26.645Z,9.10
2018-07-20T10:05:57.346Z,9.23
2018-07-20T10:08:27.952Z,8.67
2018-07-20T10:10:58.570Z,8.13
2018-07-20T10:13:29.179Z,8.27
2018-07-20T10:15:59.776Z,8.20
2018-07-20T10:18:30.428Z,8.60
2018-07-20T10:21:01.157Z,9.07
2018-07-20T10:23:31.859Z,8.63
2018-07-20T10:26:02.477Z,7.70
2018-07-20T10:28:33.100Z,7.57
2018-07-20T10:31:03.853Z,7.70
2018-07-20T10:34:37.016Z,8.00
2018-07-20T10:37:07.859Z,8.03
2018-07-20T10:39:38.500Z,8.13
2018-07-20T10:42:09.168Z,7.33
2018-07-20T10:44:40.131Z,7.23
2018-07-20T10:47:10.764Z,6.93
2018-07-20T10:49:41.500Z,7.37
2018-07-20T10:52:12.160Z,6.57
2018-07-20T10:54:42.736Z,7.17
2018-07-20T10:57:13.407Z,6.80
2018-07-20T10:59:44.041Z,7.00
2018-07-20T11:02:14.661Z,7.10
2018-07-20T11:04:45.699Z,7.00
2018-07-20T11:07:16.347Z,6.70
2018-07-20T11:09:46.996Z,6.77
2018-07-20T11:12:17.599Z,6.80
2018-07-20T11:14:47.691Z,6.83
2018-07-20T11:17:18.312Z,6.70
2018-07-20T11:19:49.460Z,7.10
2018-07-20T11:22:20.052Z,6.77
2018-07-20T11:24:50.677Z,6.87
2018-07-20T11:27:21.324Z,7.20
2018-07-20T11:29:51.927Z,7.03
2018-07-20T11:32:22.549Z,6.20
2018-07-20T11:34:53.152Z,6.17
2018-07-20T11:37:23.895Z,6.07
2018-07-20T11:39:54.512Z,5.80
2018-07-20T11:43:27.958Z,6.50
2018-07-20T11:45:59.354Z,6.23
2018-07-20T11:48:31.147Z,6.00
2018-07-20T11:51:02.381Z,5.80
2018-07-20T11:53:35.966Z,5.23
2018-07-20T11:56:07.312Z,5.43
2018-07-20T11:58:38.919Z,5.30
2018-07-20T12:01:10.379Z,5.40
2018-07-20T12:03:41.045Z,5.40
2018-07-20T12:06:11.676Z,5.70
2018-07-20T12:08:42.304Z,5.67
2018-07-20T12:11:13.016Z,5.40
2018-07-20T12:13:43.633Z,5.33
2018-07-20T12:16:14.279Z,5.63
2018-07-20T12:18:45.337Z,5.33
2018-07-20T12:21:16.334Z,5.83
2018-07-20T12:23:53.419Z,5.50
2018-07-20T12:26:24.071Z,5.57
2018-07-20T12:28:54.686Z,5.90
2018-07-20T12:31:25.348Z,5.63
2018-07-20T12:33:55.977Z,5.20
2018-07-20T12:36:26.765Z,5.83
2018-07-20T12:38:57.360Z,5.90
2018-07-20T12:41:28.000Z,5.63
2018-07-20T12:43:58.612Z,5.70
2018-07-20T12:46:29.835Z,5.70
2018-07-20T12:49:00.511Z,6.00
2018-07-20T12:51:31.558Z,5.87
2018-07-20T12:54:02.185Z,5.67
2018-07-20T12:56:32.813Z,5.70
2018-07-20T12:59:03.453Z,5.60
2018-07-20T13:01:34.121Z,5.55
2018-07-20T13:04:04.792Z,5.42
2018-07-20T13:06:35.414Z,5.65
2018-07-20T13:09:09.088Z,5.47
2018-07-20T13:11:40.088Z,6.07
2018-07-20T13:14:11.754Z,6.20
2018-07-20T13:16:42.948Z,6.03
2018-07-20T13:19:13.611Z,5.80
2018-07-20T13:21:44.327Z,6.00
2018-07-20T13:24:14.968Z,5.17
2018-07-20T13:26:45.604Z,5.40
2018-07-20T13:29:15.678Z,5.10
2018-07-20T13:31:46.320Z,5.30
2018-07-20T13:34:16.953Z,5.30
2018-07-20T13:36:47.673Z,5.30
2018-07-20T13:39:18.343Z,5.73
2018-07-20T13:41:48.996Z,5.17
2018-07-20T13:44:19.659Z,5.30
2018-07-20T13:46:50.283Z,5.40
2018-07-20T13:49:20.971Z,5.70
2018-07-20T13:51:51.599Z,5.57
2018-07-20T13:54:22.600Z,5.87
2018-07-20T13:56:53.221Z,5.47
2018-07-20T13:59:23.281Z,5.50
2018-07-20T14:01:53.984Z,5.70
2018-07-20T14:04:24.626Z,5.70
2018-07-20T14:06:55.247Z,5.40
2018-07-20T14:09:25.847Z,5.07
2018-07-20T14:11:55.904Z,4.97
2018-07-20T14:14:26.541Z,5.03
2018-07-20T14:16:57.209Z,5.30
2018-07-20T14:19:27.854Z,5.10
2018-07-20T14:21:59.447Z,4.93
2018-07-20T14:24:29.949Z,5.23
2018-07-20T14:27:00.674Z,4.73
2018-07-20T14:29:31.305Z,4.87
2018-07-20T14:32:02.068Z,4.67
2018-07-20T14:34:32.671Z,4.63
2018-07-20T14:37:03.395Z,4.50
2018-07-20T14:39:34.216Z,4.83
2018-07-20T14:42:04.939Z,4.23
2018-07-20T14:44:35.568Z,4.90
2018-07-20T14:47:06.296Z,4.53
2018-07-20T14:49:37.074Z,4.63
2018-07-20T14:52:08.789Z,4.37
2018-07-20T14:54:39.475Z,4.70
2018-07-20T14:57:10.206Z,4.80
2018-07-20T14:59:40.868Z,4.50
2018-07-20T15:02:11.535Z,4.60
2018-07-20T15:04:42.208Z,4.20
2018-07-20T15:07:12.902Z,4.40
2018-07-20T15:09:43.715Z,4.70
2018-07-20T15:12:14.403Z,4.30
2018-07-20T15:14:45.040Z,4.37
2018-07-20T15:17:15.704Z,4.80
2018-07-20T15:19:46.328Z,4.60
2018-07-20T15:22:16.960Z,4.77
2018-07-20T15:24:47.583Z,4.57
2018-07-20T15:27:18.287Z,4.83
2018-07-20T15:29:48.914Z,4.60
2018-07-20T15:32:19.532Z,4.57
2018-07-20T15:34:50.161Z,4.37
2018-07-20T15:37:20.801Z,4.40
2018-07-20T15:39:51.479Z,5.00
2018-07-20T15:42:22.078Z,4.63
2018-07-20T15:44:52.704Z,5.13
2018-07-20T15:47:23.369Z,5.00
2018-07-20T15:49:53.969Z,5.00
2018-07-20T15:54:55.347Z,4.37
2018-07-20T15:57:26.020Z,4.70
2018-07-20T15:59:56.787Z,4.40
2018-07-20T16:02:27.410Z,4.30
2018-07-20T16:04:58.160Z,4.60
2018-07-20T16:07:28.863Z,4.70
2018-07-20T16:09:59.546Z,4.53
2018-07-20T16:12:30.188Z,4.43
2018-07-20T16:15:00.780Z,4.67
2018-07-20T16:17:31.368Z,4.47
2018-07-20T16:20:01.989Z,4.70
2018-07-20T16:22:32.760Z,4.67
2018-07-20T16:25:03.533Z,4.37
2018-07-20T16:27:34.174Z,4.23
2018-07-20T16:30:05.080Z,4.63
2018-07-20T16:32:35.722Z,4.50
2018-07-20T16:35:06.418Z,4.47
2018-07-20T16:37:37.203Z,4.50
2018-07-20T16:40:07.955Z,4.80
2018-07-20T16:42:38.587Z,4.80
2018-07-20T16:45:09.232Z,4.80
2018-07-20T16:47:39.267Z,5.40
2018-07-20T16:50:09.345Z,4.97
2018-07-20T16:52:39.971Z,4.90
2018-07-20T16:55:10.630Z,4.93
2018-07-20T16:57:41.343Z,5.27
2018-07-20T17:00:12.562Z,4.27
2018-07-20T17:02:43.235Z,4.70
2018-07-20T17:05:13.282Z,4.60
2018-07-20T17:07:43.928Z,4.70
2018-07-20T17:10:14.577Z,4.90
2018-07-20T17:12:45.208Z,4.57
2018-07-20T17:15:15.838Z,4.60
2018-07-20T17:17:46.462Z,4.37
2018-07-20T17:20:17.100Z,4.40
2018-07-20T17:22:47.755Z,5.00
2018-07-20T17:25:18.397Z,4.63
2018-07-20T17:27:49.870Z,4.90
2018-07-20T17:30:20.705Z,4.70
2018-07-20T17:32:51.341Z,4.93
2018-07-20T17:35:22.017Z,4.63
2018-07-20T17:37:52.770Z,6.10
2018-07-20T17:40:23.431Z,5.33
2018-07-20T17:42:54.570Z,5.33
2018-07-20T17:45:25.227Z,5.37
2018-07-20T17:47:55.293Z,4.83
2018-07-20T17:50:25.943Z,5.13
2018-07-20T17:52:56.636Z,5.40
2018-07-20T17:55:27.395Z,5.30
2018-07-20T17:57:58.604Z,5.63
2018-07-20T18:00:29.247Z,5.60
2018-07-20T18:02:59.928Z,6.20
2018-07-20T18:05:31.015Z,5.77
2018-07-20T18:08:02.404Z,5.93
2018-07-20T18:10:33.094Z,6.23
2018-07-20T18:13:03.755Z,9.43
2018-07-20T18:15:34.391Z,8.43
2018-07-20T18:18:05.057Z,6.93
2018-07-20T18:20:35.704Z,7.80
2018-07-20T18:23:06.448Z,7.20
2018-07-20T18:25:36.621Z,7.70
2018-07-20T18:28:07.329Z,8.40
2018-07-20T18:30:37.991Z,8.67
2018-07-20T18:33:08.704Z,8.77
2018-07-20T18:35:39.401Z,8.50
2018-07-20T18:38:10.087Z,8.50
2018-07-20T18:40:40.720Z,8.10
2018-07-20T18:43:11.372Z,8.90
2018-07-20T18:45:42.022Z,8.33
2018-07-20T18:48:12.677Z,8.50
2018-07-20T18:50:43.326Z,8.20
2018-07-20T18:53:13.960Z,8.50
2018-07-20T18:55:44.624Z,8.27
2018-07-20T18:58:15.321Z,9.00
2018-07-20T19:00:45.978Z,9.67
2018-07-20T19:03:16.695Z,9.83
2018-07-20T19:05:47.478Z,10.13
2018-07-20T19:08:18.338Z,11.17
2018-07-20T19:10:49.120Z,11.27
2018-07-20T19:13:19.792Z,10.57
2018-07-20T19:15:50.440Z,12.20
2018-07-20T19:18:21.892Z,11.23
2018-07-20T19:20:53.133Z,12.57
2018-07-20T19:23:24.799Z,12.00
2018-07-20T19:25:55.964Z,11.13
2018-07-20T19:28:27.103Z,12.37
2018-07-20T19:30:58.323Z,11.57
2018-07-20T19:33:29.676Z,11.17
2018-07-20T19:36:01.084Z,11.20
2018-07-20T19:38:31.813Z,12.10
2018-07-20T19:41:02.498Z,11.67
2018-07-20T19:43:33.139Z,11.57
2018-07-20T19:46:03.797Z,12.43
2018-07-20T19:48:34.538Z,11.73
2018-07-20T19:51:05.261Z,11.67
2018-07-20T19:53:35.922Z,13.27
2018-07-20T19:56:06.624Z,12.20
2018-07-20T19:58:37.257Z,12.53
2018-07-20T20:01:07.919Z,12.20
2018-07-20T20:03:38.569Z,12.90
2018-07-20T20:06:09.245Z,13.57
2018-07-20T20:08:39.883Z,13.43
2018-07-20T20:11:10.649Z,12.90
2018-07-20T20:13:41.418Z,14.43
2018-07-20T20:16:12.081Z,13.27
2018-07-20T20:18:42.735Z,13.67
2018-07-20T20:21:14.120Z,12.93
2018-07-20T20:23:44.815Z,12.93
2018-07-20T20:26:15.460Z,11.73
2018-07-20T20:28:46.117Z,11.00
2018-07-20T20:31:16.810Z,10.67
2018-07-20T20:33:47.482Z,10.73
2018-07-20T20:36:18.441Z,11.77
2018-07-20T20:38:49.495Z,11.80
2018-07-20T20:41:20.212Z,11.70
2018-07-20T20:43:50.874Z,12.33
2018-07-20T20:46:21.551Z,11.07
2018-07-20T20:48:52.211Z,10.87
2018-07-20T20:51:22.952Z,13.80
2018-07-20T20:53:53.611Z,13.60
2018-07-20T20:56:24.275Z,13.30
2018-07-20T20:58:55.020Z,14.40
2018-07-20T21:01:25.731Z,13.40
2018-07-20T21:03:56.384Z,15.97
2018-07-20T21:06:27.037Z,14.23
2018-07-20T21:08:57.692Z,13.80
2018-07-20T21:11:28.356Z,13.03
2018-07-20T21:13:59.043Z,13.53
2018-07-20T21:16:29.855Z,13.80
2018-07-20T21:19:00.518Z,11.67
2018-07-20T21:21:31.224Z,13.50
2018-07-20T21:24:02.275Z,11.87
2018-07-20T21:26:33.001Z,10.53
2018-07-20T21:29:03.690Z,9.97
2018-07-20T21:31:34.342Z,9.73
2018-07-20T21:34:05.028Z,10.30
2018-07-20T21:36:35.672Z,10.87
2018-07-20T21:39:11.732Z,11.43
2018-07-20T21:41:43.511Z,12.67
2018-07-20T21:44:14.174Z,10.00
2018-07-20T21:46:44.913Z,9.73
2018-07-20T21:49:15.605Z,8.60
2018-07-20T21:51:46.268Z,10.37
2018-07-20T21:54:16.922Z,10.07
2018-07-20T21:56:48.005Z,10.00
2018-07-20T21:59:18.661Z,10.20
2018-07-20T22:01:49.354Z,10.70
2018-07-20T22:04:20.031Z,10.83
2018-07-20T22:06:50.845Z,10.30
2018-07-20T22:09:21.631Z,10.90
2018-07-20T22:11:53.080Z,10.53
2018-07-20T22:14:23.929Z,11.43
2018-07-20T22:16:54.750Z,11.13
2018-07-20T22:19:25.797Z,10.67
2018-07-20T22:21:56.695Z,10.47
2018-07-20T22:24:27.565Z,11.27
2018-07-20T22:26:58.457Z,11.37
2018-07-20T22:29:29.176Z,10.97
2018-07-20T22:31:59.916Z,11.40
2018-07-20T22:34:30.665Z,12.50
2018-07-20T22:37:01.481Z,11.27
2018-07-20T22:39:32.390Z,10.53
2018-07-20T22:42:03.184Z,12.33
2018-07-20T22:44:34.117Z,11.50
2018-07-20T22:47:05.060Z,11.80
2018-07-20T22:49:35.908Z,10.83
2018-07-20T22:52:06.851Z,11.50
2018-07-20T22:54:37.752Z,10.23
2018-07-20T22:57:08.697Z,10.63
2018-07-20T22:59:39.466Z,10.57
2018-07-20T23:02:10.440Z,10.20
2018-07-20T23:04:41.333Z,10.90
2018-07-20T23:07:12.113Z,10.73
2018-07-20T23:09:42.955Z,9.97
2018-07-20T23:12:13.745Z,11.77
2018-07-20T23:14:45.133Z,10.37
2018-07-20T23:17:15.930Z,10.27
2018-07-20T23:19:46.692Z,9.73
2018-07-20T23:22:17.492Z,10.40
2018-07-20T23:24:48.349Z,10.63
2018-07-20T23:27:18.928Z,10.70
2018-07-20T23:29:49.962Z,9.90
2018-07-20T23:32:20.754Z,10.37
2018-07-20T23:34:50.992Z,9.37
2018-07-20T23:37:21.793Z,9.60
2018-07-20T23:39:52.649Z,9.03
2018-07-20T23:42:23.631Z,9.27
2018-07-20T23:44:54.476Z,8.87
2018-07-20T23:47:25.770Z,8.63
2018-07-20T23:49:58.393Z,9.57
2018-07-20T23:52:29.336Z,9.03
2018-07-20T23:55:00.170Z,9.20
2018-07-20T23:57:31.112Z,9.30
